Terminal Aerodrome Forecast
Issued by NWS Oklahoma City, OK

Home | Current Version | Previous Version | Text Only | Print | Product List | Glossary On
Versions: 1 2 3 4 5 6 7 8 9 10 11 12 13 14 15
000
FTUS44 KOUN 211744
TAFOUN
TAF
KOUN 211744Z 2118/2218 08004KT P6SM SCT020
     FM220700 12004KT P6SM FEW250
     FM221200 16004KT 5SM BR SCT007
      TEMPO 2212/2214 BKN008=

USA.gov is the U.S. government's official web portal to all federal, state and local government web resources and services.